Arroyo, Puerto Rico
Current Conditions -  °F | °C
As of 1:56 PM on Monday 20 Oct 2014 (Local Time) from TJSJ Reporting Station
Scattered Clouds Scattered Clouds  
Wind Chill: 87°   Ceiling: Unl
Heat Index: 97°   Visibility: 10mi
Dew Point: 76°   Wind: 13mph
Humidity: 69%   Direction: 40°NE
Pressure: 29.93"   Gusts: 17mph
Location:  17.97°N, 66.06°W
Report Text: TJSJ 201756Z 04011G15KT 10SM FEW025 SCT065 31/24 A2993 RMK AO2 SLP133 T03060244 10311 20278 58022
Loading
Personal Weather Stations






























Interactive Weather Map
Tropical Storm Tracking
New forecast layout! Learn more

10-Day Weather Forecast

Advertisements
Track Severe Weather on mobile